Time;durP1;ratioP1;P1;durP2;ratioP2;P2;SDS_P1;SDS_P2;PMS_P1;PMS_P2;Temp;Humidity;BMP_temperature;BMP_pressure;BME280_temperature;BME280_humidity;BME280_pressure;Samples;Min_cycle;Max_cycle;Signal;HPM_P1;HPM_P2
2021/10/06 00:01:48;;;;;;;15.95;2.45;;;11.10;99.90;;;;;;6182785;23;20017;-79
2021/10/06 00:04:17;;;;;;;4.15;1.83;;;11.00;99.90;;;;;;6181986;23;20028;-81
2021/10/06 00:06:49;;;;;;;5.15;2.67;;;11.00;99.90;;;;;;6172037;23;20013;-81
2021/10/06 00:09:20;;;;;;;3.22;1.60;;;11.00;99.90;;;;;;6180149;23;20013;-82
2021/10/06 00:11:52;;;;;;;;;;;11.10;99.90;;;;;;6194186;23;20031;-82
2021/10/06 00:14:31;;;;;;;7.22;2.85;;;10.70;99.90;;;;;;6177378;23;19920;-83
2021/10/06 00:17:31;;;;;;;16.30;3.03;;;11.00;99.90;;;;;;6190542;23;20028;-82
2021/10/06 00:20:06;;;;;;;6.47;2.50;;;11.00;99.90;;;;;;6145346;23;20017;-82
2021/10/06 00:22:46;;;;;;;4.40;2.28;;;11.30;99.90;;;;;;6208921;23;20015;-81
2021/10/06 00:25:19;;;;;;;5.07;1.35;;;9.80;99.90;;;;;;6145859;23;20025;-79
2021/10/06 00:28:05;;;;;;;9.82;2.50;;;9.90;99.90;;;;;;6200154;23;20017;-80
2021/10/06 00:30:45;;;;;;;7.00;2.05;;;11.00;99.90;;;;;;6183776;23;20529;-80
2021/10/06 00:33:14;;;;;;;2.55;1.60;;;10.50;99.90;;;;;;6122678;23;20021;-80
2021/10/06 00:35:57;;;;;;;3.58;1.55;;;11.10;99.90;;;;;;6171145;23;20035;-84
2021/10/06 00:38:28;;;;;;;2.50;1.33;;;11.00;99.90;;;;;;6193991;23;20027;-80
2021/10/06 00:41:06;;;;;;;11.18;1.98;;;10.90;99.90;;;;;;6181779;23;20013;-80
2021/10/06 00:43:34;;;;;;;3.45;1.75;;;11.00;99.90;;;;;;6121741;23;20027;-79
2021/10/06 00:46:09;;;;;;;5.55;1.85;;;11.00;99.90;;;;;;6146412;23;20839;-82
2021/10/06 00:48:49;;;;;;;7.03;1.33;;;11.10;99.90;;;;;;6175250;23;20013;-81
2021/10/06 00:54:44;;;;;;;4.80;2.17;;;11.00;99.90;;;;;;6228514;23;20506;-81
2021/10/06 00:57:16;;;;;;;5.45;2.05;;;11.10;99.90;;;;;;6231001;23;20023;-78
2021/10/06 00:59:47;;;;;;;4.40;1.75;;;11.00;99.90;;;;;;6238452;23;20033;-78
2021/10/06 01:02:16;;;;;;;2.35;1.52;;;10.60;99.90;;;;;;6201383;23;20028;-82
2021/10/06 01:04:48;;;;;;;3.35;2.15;;;11.00;99.90;;;;;;6226099;23;20019;-82
2021/10/06 01:07:26;;;;;;;6.20;2.08;;;10.90;99.90;;;;;;6198947;23;20020;-82
2021/10/06 01:09:57;;;;;;;3.22;1.58;;;11.00;99.90;;;;;;6197723;23;20027;-83
2021/10/06 01:12:26;;;;;;;7.57;1.73;;;10.90;99.90;;;;;;6236442;23;20009;-83
2021/10/06 01:14:56;;;;;;;4.97;3.40;;;10.90;99.90;;;;;;6198084;23;20020;-84
2021/10/06 01:17:25;;;;;;;5.38;1.80;;;10.90;99.90;;;;;;6177711;23;20027;-82
2021/10/06 01:19:53;;;;;;;5.10;2.63;;;10.90;99.90;;;;;;6198747;23;20035;-83
2021/10/06 01:22:21;;;;;;;4.72;1.83;;;10.90;99.90;;;;;;6235045;23;20354;-83
2021/10/06 01:24:52;;;;;;;7.15;1.70;;;10.90;99.90;;;;;;6233727;23;20012;-80
2021/10/06 01:27:51;;;;;;;10.02;2.47;;;10.80;99.90;;;;;;6231925;23;20031;-79
2021/10/06 01:30:18;;;;;;;6.03;1.63;;;10.80;99.90;;;;;;6224459;23;20029;-79
2021/10/06 01:32:47;;;;;;;6.55;2.38;;;10.80;99.90;;;;;;6235109;23;20027;-81
2021/10/06 01:35:16;;;;;;;4.80;1.67;;;10.80;99.90;;;;;;6235492;23;20024;-81
2021/10/06 01:37:47;;;;;;;4.90;2.22;;;10.90;99.90;;;;;;6174190;23;20020;-81
2021/10/06 01:40:22;;;;;;;8.50;1.55;;;10.80;99.90;;;;;;6234229;23;20021;-79
2021/10/06 01:42:52;;;;;;;6.80;1.85;;;10.90;99.90;;;;;;6174561;23;20031;-79
2021/10/06 01:45:24;;;;;;;6.20;2.78;;;9.90;99.90;;;;;;6209550;23;20024;-80
2021/10/06 01:47:56;;;;;;;7.65;3.15;;;10.90;99.90;;;;;;6236859;23;20021;-80
2021/10/06 01:50:37;;;;;;;12.20;2.08;;;10.80;99.90;;;;;;6233989;23;20012;-78
2021/10/06 01:53:06;;;;;;;4.85;2.40;;;10.80;99.90;;;;;;6197112;23;20027;-81
2021/10/06 01:55:35;;;;;;;7.13;2.45;;;10.80;99.90;;;;;;6194878;23;20035;-79
2021/10/06 01:58:06;;;;;;;7.75;1.98;;;10.80;99.90;;;;;;6207962;23;20019;-82
2021/10/06 02:00:34;;;;;;;;;;;10.80;99.90;;;;;;6207072;23;20016;-82
2021/10/06 02:03:05;;;;;;;2.53;1.33;;;10.80;99.90;;;;;;6171459;23;19930;-79
2021/10/06 02:05:35;;;;;;;6.38;2.00;;;10.80;99.90;;;;;;6198366;23;20027;-81
2021/10/06 02:08:05;;;;;;;11.90;2.03;;;10.80;99.90;;;;;;6208441;23;20021;-83
2021/10/06 02:10:34;;;;;;;7.07;2.10;;;10.80;99.90;;;;;;6172595;23;20021;-79
2021/10/06 02:13:04;;;;;;;5.95;2.13;;;10.80;99.90;;;;;;6149575;23;20021;-80
2021/10/06 02:15:41;;;;;;;4.93;2.88;;;10.80;99.90;;;;;;6207243;23;20017;-83
2021/10/06 02:18:14;;;;;;;6.00;1.85;;;10.90;99.90;;;;;;6197718;23;20017;-81
2021/10/06 02:20:42;;;;;;;5.18;2.17;;;10.80;99.90;;;;;;6182536;23;20339;-81
2021/10/06 02:23:12;;;;;;;10.95;2.00;;;10.80;99.90;;;;;;6207857;23;20017;-82
2021/10/06 02:25:40;;;;;;;3.72;1.75;;;10.90;99.90;;;;;;6196695;23;20017;-80
2021/10/06 02:28:10;;;;;;;8.77;2.10;;;10.80;99.90;;;;;;6171524;23;20741;-80
2021/10/06 02:30:40;;;;;;;8.63;2.38;;;10.80;99.90;;;;;;6196062;23;20031;-79
2021/10/06 02:33:11;;;;;;;3.58;1.45;;;10.80;99.90;;;;;;6199134;23;20017;-82
2021/10/06 02:35:39;;;;;;;4.47;1.75;;;10.80;99.90;;;;;;6209604;23;20013;-81
2021/10/06 02:38:08;;;;;;;5.85;2.22;;;10.80;99.90;;;;;;6170965;23;20024;-80
2021/10/06 02:40:41;;;;;;;3.20;1.85;;;10.80;99.90;;;;;;6199989;23;20019;-80
2021/10/06 02:43:12;;;;;;;9.77;1.65;;;10.80;99.90;;;;;;6195129;23;20025;-81
2021/10/06 02:45:40;;;;;;;7.82;1.95;;;10.80;99.90;;;;;;6170528;23;20025;-81
2021/10/06 02:48:09;;;;;;;6.63;1.63;;;10.90;99.90;;;;;;6204524;23;20009;-82
2021/10/06 02:50:38;;;;;;;8.48;2.28;;;10.80;99.90;;;;;;6205168;23;20013;-80
2021/10/06 02:53:07;;;;;;;8.60;1.98;;;10.80;99.90;;;;;;6170414;23;20021;-81
2021/10/06 02:55:35;;;;;;;11.75;2.55;;;10.80;99.90;;;;;;6195052;23;20593;-81
2021/10/06 02:58:04;;;;;;;7.65;1.40;;;10.90;99.90;;;;;;6194647;23;20020;-80
2021/10/06 03:00:32;;;;;;;2.47;1.52;;;10.80;99.90;;;;;;6207756;23;20021;-80
2021/10/06 03:03:03;;;;;;;6.13;1.40;;;10.80;99.90;;;;;;6170412;23;20024;-81
2021/10/06 03:05:31;;;;;;;12.38;1.85;;;10.80;99.90;;;;;;6182033;23;20023;-81
2021/10/06 03:08:00;;;;;;;4.30;1.70;;;10.80;99.90;;;;;;6206370;23;20021;-82
2021/10/06 03:10:28;;;;;;;4.28;1.45;;;10.30;99.90;;;;;;6198348;23;20013;-80
2021/10/06 03:12:58;;;;;;;6.13;1.80;;;10.80;99.90;;;;;;6200767;23;20017;-79
2021/10/06 03:15:27;;;;;;;4.47;2.17;;;10.70;99.90;;;;;;6208031;23;20016;-80
2021/10/06 03:17:56;;;;;;;7.25;1.85;;;10.70;99.90;;;;;;6147054;23;20017;-78
2021/10/06 03:20:28;;;;;;;4.75;2.38;;;10.70;99.90;;;;;;6208754;23;20021;-81
2021/10/06 03:22:58;;;;;;;8.75;2.25;;;10.70;99.90;;;;;;6195008;23;20025;-80
2021/10/06 03:25:27;;;;;;;7.13;1.98;;;10.70;99.90;;;;;;6194073;23;20021;-81
2021/10/06 03:28:01;;;;;;;5.85;1.55;;;10.60;99.90;;;;;;6197245;23;20025;-79
2021/10/06 03:30:33;;;;;;;2.03;1.80;;;10.60;99.90;;;;;;6195557;23;20029;-80
2021/10/06 03:33:01;;;;;;;9.10;2.53;;;10.60;99.90;;;;;;6208321;23;20021;-79
2021/10/06 03:35:29;;;;;;;6.50;2.40;;;10.60;99.90;;;;;;6170264;23;20017;-84
2021/10/06 03:37:58;;;;;;;8.75;1.85;;;10.60;99.90;;;;;;6207501;23;20020;-80
2021/10/06 03:40:33;;;;;;;11.27;3.15;;;10.60;99.90;;;;;;6196525;23;20017;-82
2021/10/06 03:43:06;;;;;;;7.50;2.30;;;10.70;99.90;;;;;;6208185;23;20032;-82
2021/10/06 03:45:34;;;;;;;7.22;2.10;;;10.60;99.90;;;;;;6196003;23;20017;-81
2021/10/06 03:48:07;;;;;;;6.35;2.08;;;10.60;99.90;;;;;;6206952;23;20013;-79
2021/10/06 03:50:45;;;;;;;5.20;1.98;;;10.00;99.90;;;;;;6199127;23;20013;-79
2021/10/06 03:53:13;;;;;;;5.50;2.38;;;10.60;99.90;;;;;;6125141;23;20025;-81
2021/10/06 03:55:42;;;;;;;4.47;2.17;;;10.60;99.90;;;;;;6231716;23;20020;-81
2021/10/06 03:58:10;;;;;;;4.90;2.03;;;10.60;99.90;;;;;;6198490;23;20027;-81
2021/10/06 04:00:41;;;;;;;5.05;2.17;;;10.60;99.90;;;;;;6171877;23;20025;-79
2021/10/06 04:03:14;;;;;;;8.43;2.03;;;10.50;99.90;;;;;;6197313;23;20017;-79
2021/10/06 04:05:42;;;;;;;10.95;2.17;;;10.50;99.90;;;;;;6183951;23;20023;-81
2021/10/06 04:08:11;;;;;;;9.77;2.78;;;10.60;99.90;;;;;;6197614;23;20023;-79
2021/10/06 04:10:42;;;;;;;14.77;2.15;;;10.60;99.90;;;;;;6198131;23;20023;-81
2021/10/06 04:13:12;;;;;;;4.13;2.78;;;10.60;99.90;;;;;;6197777;23;20017;-81
2021/10/06 04:15:41;;;;;;;6.45;2.88;;;10.70;99.90;;;;;;6210040;23;20013;-79
2021/10/06 04:18:10;;;;;;;3.60;1.70;;;10.60;99.90;;;;;;6208812;23;20013;-80
2021/10/06 04:20:40;;;;;;;8.52;2.40;;;10.60;99.90;;;;;;6201249;23;20017;-79
2021/10/06 04:23:28;;;;;;;11.77;1.90;;;10.60;99.90;;;;;;6201256;23;20023;-81
2021/10/06 04:26:14;;;;;;;8.45;2.22;;;10.50;99.90;;;;;;6229107;23;20027;-79
2021/10/06 04:28:42;;;;;;;1.85;1.60;;;10.50;99.90;;;;;;6209123;23;20309;-80
2021/10/06 04:31:19;;;;;;;3.88;1.75;;;10.50;99.90;;;;;;6207198;23;20017;-80
2021/10/06 04:33:49;;;;;;;6.45;1.80;;;10.40;99.90;;;;;;6199428;23;20032;-79
2021/10/06 04:36:17;;;;;;;8.57;2.03;;;10.40;99.90;;;;;;6196950;23;20025;-81
2021/10/06 04:38:49;;;;;;;9.27;2.05;;;10.70;99.90;;;;;;6201252;23;20017;-80
2021/10/06 04:41:17;;;;;;;8.02;1.92;;;10.40;99.90;;;;;;6198005;23;20025;-81
2021/10/06 04:43:46;;;;;;;5.10;2.15;;;10.40;99.90;;;;;;6208774;23;20016;-79
2021/10/06 04:46:17;;;;;;;6.45;1.90;;;10.40;99.90;;;;;;6197032;23;20020;-82
2021/10/06 04:48:55;;;;;;;8.50;2.20;;;10.40;99.90;;;;;;6194104;23;20020;-81
2021/10/06 04:51:29;;;;;;;6.38;1.80;;;9.50;99.90;;;;;;6169483;23;20031;-82
2021/10/06 04:54:10;;;;;;;7.80;2.50;;;10.40;99.90;;;;;;6169881;23;20025;-79
2021/10/06 04:56:38;;;;;;;5.53;1.75;;;10.40;99.90;;;;;;6223566;23;20017;-81
2021/10/06 04:59:29;;;;;;;11.50;3.17;;;11.20;99.90;;;;;;6197674;23;20017;-82
2021/10/06 05:02:17;;;;;;;13.38;4.05;;;10.00;99.90;;;;;;6194423;23;20029;-81
2021/10/06 05:04:54;;;;;;;5.80;2.55;;;10.40;99.90;;;;;;6192462;23;20027;-80
2021/10/06 05:07:28;;;;;;;4.10;2.30;;;10.40;99.90;;;;;;6206859;23;20023;-83
2021/10/06 05:10:14;;;;;;;4.18;1.77;;;10.30;99.90;;;;;;6193726;23;20031;-83
2021/10/06 05:12:59;;;;;;;9.13;3.13;;;10.30;99.90;;;;;;6168815;23;20017;-82
2021/10/06 05:15:31;;;;;;;4.25;2.40;;;10.70;99.90;;;;;;6193960;23;20013;-81
2021/10/06 05:18:10;;;;;;;17.85;3.42;;;10.30;99.90;;;;;;6179373;23;20017;-84
2021/10/06 05:20:52;;;;;;;4.90;3.08;;;10.30;99.90;;;;;;6194117;23;20024;-84
2021/10/06 05:23:48;;;;;;;6.80;1.98;;;10.20;99.90;;;;;;6185909;23;20024;-79
2021/10/06 05:26:24;;;;;;;4.82;1.88;;;10.30;99.90;;;;;;6197418;23;20013;-80
2021/10/06 05:29:13;;;;;;;5.57;1.83;;;10.30;99.90;;;;;;6172224;23;20020;-81
2021/10/06 05:31:58;;;;;;;9.07;2.22;;;10.40;99.90;;;;;;6171918;23;20021;-82
2021/10/06 05:34:30;;;;;;;6.68;1.98;;;10.30;99.90;;;;;;6230947;23;20021;-81
2021/10/06 05:37:55;;;;;;;4.43;2.30;;;10.30;99.90;;;;;;6193568;23;20021;-82
2021/10/06 05:40:28;;;;;;;5.65;2.25;;;10.10;99.90;;;;;;6176681;23;20023;-81
2021/10/06 05:43:41;;;;;;;12.85;2.10;;;10.20;99.90;;;;;;6196106;23;20031;-84
2021/10/06 05:46:36;;;;;;;6.22;2.03;;;10.30;99.90;;;;;;6195997;23;20017;-82
2021/10/06 05:49:14;;;;;;;3.88;1.67;;;10.20;99.90;;;;;;6207664;23;20130;-81
2021/10/06 05:52:26;;;;;;;5.35;2.42;;;10.20;99.90;;;;;;6217817;23;20017;-81
2021/10/06 05:55:22;;;;;;;6.40;2.15;;;10.10;99.90;;;;;;6188119;23;20017;-84
2021/10/06 05:57:52;;;;;;;8.98;2.10;;;10.50;99.90;;;;;;6170627;23;20023;-79
2021/10/06 06:00:30;;;;;;;7.40;4.95;;;10.30;99.90;;;;;;6206407;23;20013;-83
2021/10/06 06:03:30;;;;;;;8.25;1.80;;;10.00;99.90;;;;;;6176210;23;20028;-81
2021/10/06 06:06:00;;;;;;;9.07;2.30;;;10.10;99.90;;;;;;6168991;23;20028;-82
2021/10/06 06:11:50;;;;;;;;;;;10.10;99.90;;;;;;6196790;23;20247;-83
2021/10/06 06:14:32;;;;;;;;;;;;;;;;;;;;;
2021/10/06 06:17:27;;;;;;;8.45;2.13;;;10.10;99.90;;;;;;6232437;23;20013;-82
2021/10/06 06:20:14;;;;;;;6.90;3.58;;;10.10;99.90;;;;;;6205310;23;20023;-86
2021/10/06 06:22:50;;;;;;;3.97;1.83;;;10.10;99.90;;;;;;6195343;23;20025;-83
2021/10/06 06:26:08;;;;;;;6.68;2.22;;;10.20;99.90;;;;;;6206388;23;20021;-83
2021/10/06 06:28:40;;;;;;;4.70;2.85;;;9.30;99.90;;;;;;6188420;23;20080;-81
2021/10/06 06:31:11;;;;;;;7.22;3.10;;;10.00;99.90;;;;;;6204459;23;20017;-83
2021/10/06 06:33:40;;;;;;;4.53;1.92;;;10.10;99.90;;;;;;6194149;23;20016;-80
2021/10/06 06:36:09;;;;;;;10.43;3.40;;;10.10;99.90;;;;;;6168042;23;20025;-78
2021/10/06 06:38:47;;;;;;;10.18;3.42;;;10.00;99.90;;;;;;6192979;23;20021;-81
2021/10/06 06:41:16;;;;;;;10.35;4.03;;;10.10;99.90;;;;;;6169899;23;20013;-79
2021/10/06 06:43:44;;;;;;;8.82;3.20;;;10.10;99.90;;;;;;6192255;23;20031;-79
2021/10/06 06:46:14;;;;;;;3.40;1.77;;;10.10;99.90;;;;;;6203756;23;20017;-88
2021/10/06 06:49:13;;;;;;;6.18;2.30;;;10.20;99.90;;;;;;6179685;23;20017;-85
2021/10/06 06:51:50;;;;;;;9.15;2.30;;;10.20;99.90;;;;;;6191059;23;20013;-91
2021/10/06 06:54:28;;;;;;;5.72;3.60;;;10.20;99.90;;;;;;6206579;23;20044;-86
2021/10/06 06:57:20;;;;;;;4.55;1.80;;;10.30;99.90;;;;;;6227012;23;20012;-84
2021/10/06 07:00:18;;;;;;;6.95;1.92;;;10.30;99.90;;;;;;6152451;23;20021;-90
2021/10/06 07:03:22;;;;;;;5.18;1.60;;;10.40;99.90;;;;;;6199674;23;20370;-86
2021/10/06 07:06:15;;;;;;;7.53;1.70;;;10.50;99.90;;;;;;6164159;23;20032;-86
2021/10/06 07:08:47;;;;;;;8.13;1.98;;;10.40;99.90;;;;;;6139665;23;20021;-88
2021/10/06 07:11:29;;;;;;;10.07;2.67;;;10.40;99.90;;;;;;6191409;23;20033;-89
2021/10/06 07:14:07;;;;;;;10.85;2.67;;;10.50;99.90;;;;;;6164108;23;20020;-91
2021/10/06 07:16:37;;;;;;;5.05;2.00;;;10.50;99.90;;;;;;6176392;23;20025;-89
2021/10/06 07:19:28;;;;;;;10.00;2.95;;;10.60;99.90;;;;;;6153762;23;20005;-89
2021/10/06 07:21:58;;;;;;;7.32;1.55;;;10.60;99.90;;;;;;6180034;23;20035;-91
2021/10/06 07:24:32;;;;;;;11.20;2.38;;;10.70;99.90;;;;;;6201612;23;20040;-83
2021/10/06 07:27:00;;;;;;;3.78;1.67;;;10.70;99.90;;;;;;6187894;23;20047;-87
2021/10/06 07:29:31;;;;;;;4.22;1.60;;;10.70;99.90;;;;;;6165552;23;20025;-85
2021/10/06 07:32:01;;;;;;;6.15;1.98;;;10.80;99.90;;;;;;6213581;23;20017;-87
2021/10/06 07:34:29;;;;;;;7.28;1.90;;;10.80;99.90;;;;;;6169691;23;20020;-85
2021/10/06 07:36:57;;;;;;;7.30;1.73;;;10.90;99.90;;;;;;6168417;23;20024;-86
2021/10/06 07:39:26;;;;;;;7.97;2.60;;;10.90;99.90;;;;;;6168542;23;20472;-88
2021/10/06 07:41:54;;;;;;;8.50;2.05;;;10.90;99.90;;;;;;6190285;23;20009;-87
2021/10/06 07:44:22;;;;;;;8.77;1.80;;;11.00;99.90;;;;;;6166483;23;20021;-90
2021/10/06 07:46:50;;;;;;;5.97;2.10;;;11.10;99.90;;;;;;6166581;23;20032;-88
2021/10/06 07:49:18;;;;;;;4.07;1.70;;;11.10;99.90;;;;;;6172018;23;20021;-91
2021/10/06 07:51:46;;;;;;;12.52;1.90;;;11.10;99.90;;;;;;6215411;23;20015;-89
2021/10/06 07:54:15;;;;;;;5.45;2.28;;;11.10;99.90;;;;;;6168097;23;20013;-91
2021/10/06 07:56:47;;;;;;;4.38;2.00;;;11.20;99.90;;;;;;6192989;23;20028;-89
2021/10/06 07:59:17;;;;;;;4.75;2.08;;;10.50;99.90;;;;;;6168691;23;20016;-90
2021/10/06 08:01:49;;;;;;;7.20;1.85;;;11.20;99.90;;;;;;6192496;23;20025;-91
2021/10/06 08:04:19;;;;;;;5.80;2.60;;;11.30;99.90;;;;;;6190863;23;20021;-92
2021/10/06 08:06:53;;;;;;;7.28;2.35;;;11.40;99.90;;;;;;6162340;23;20018;-90
2021/10/06 08:09:26;;;;;;;3.97;1.63;;;11.40;99.90;;;;;;6142808;23;20018;-91
2021/10/06 08:12:03;;;;;;;7.40;2.13;;;11.50;99.90;;;;;;6137014;23;20333;-91
2021/10/06 08:14:34;;;;;;;5.35;1.77;;;11.40;99.90;;;;;;6097890;23;20028;-90
2021/10/06 08:17:06;;;;;;;1.67;1.42;;;11.10;99.90;;;;;;6116332;23;20029;-91
2021/10/06 08:20:09;;;;;;;6.07;2.15;;;11.70;99.90;;;;;;6149234;23;20018;-92
2021/10/06 08:22:43;;;;;;;7.07;2.38;;;11.60;99.90;;;;;;6119142;23;20036;-92
2021/10/06 08:25:17;;;;;;;6.28;2.33;;;11.70;99.90;;;;;;6144074;23;20021;-91
2021/10/06 08:27:55;;;;;;;6.18;2.60;;;11.70;99.90;;;;;;6117840;23;20032;-90
2021/10/06 08:30:29;;;;;;;6.43;1.50;;;11.90;99.90;;;;;;6181605;23;20020;-88
2021/10/06 08:33:01;;;;;;;8.98;1.98;;;11.80;99.90;;;;;;6140981;23;20032;-88
2021/10/06 08:35:33;;;;;;;5.03;2.17;;;11.90;99.90;;;;;;6118095;23;20020;-86
2021/10/06 08:38:04;;;;;;;6.70;1.95;;;11.90;99.90;;;;;;6097194;23;20006;-88
2021/10/06 08:44:01;;;;;;;10.82;2.58;;;12.00;99.90;;;;;;6212816;22;20029;-84
2021/10/06 08:47:20;;;;;;;8.07;3.13;;;12.20;99.90;;;;;;6178750;23;20019;-86
2021/10/06 08:54:15;;;;;;;8.80;2.70;;;12.20;99.90;;;;;;6110797;23;20014;-84
2021/10/06 08:56:55;;;;;;;11.55;2.30;;;12.30;99.90;;;;;;6113337;23;20029;-86
2021/10/06 08:59:52;;;;;;;14.20;2.40;;;12.30;99.90;;;;;;6115477;23;20113;-85
2021/10/06 09:02:53;;;;;;;8.95;2.20;;;12.40;99.90;;;;;;6174769;23;20021;-84
2021/10/06 09:06:14;;;;;;;4.80;1.42;;;11.70;99.90;;;;;;6148421;23;20025;-85
2021/10/06 09:09:34;;;;;;;8.45;1.92;;;12.50;99.90;;;;;;6154643;23;20043;-87
2021/10/06 09:12:17;;;;;;;7.40;1.75;;;12.50;99.90;;;;;;6125058;23;20032;-88
2021/10/06 09:15:59;;;;;;;21.20;4.68;;;11.70;99.90;;;;;;6181907;23;20035;-83
2021/10/06 09:18:50;;;;;;;6.70;2.08;;;12.70;99.90;;;;;;6138088;23;20467;-87
2021/10/06 09:21:29;;;;;;;3.65;1.83;;;12.80;99.90;;;;;;6145200;23;20776;-88
2021/10/06 09:24:47;;;;;;;6.32;2.78;;;12.90;99.90;;;;;;6146715;23;20032;-83
2021/10/06 09:28:17;;;;;;;;;;;;;;;;;;;;;
2021/10/06 09:31:27;;;;;;;7.47;2.08;;;13.10;99.90;;;;;;6175010;23;20021;-90
2021/10/06 09:34:07;;;;;;;6.88;1.90;;;13.20;99.90;;;;;;6202822;23;20035;-87
2021/10/06 09:36:40;;;;;;;9.00;1.63;;;13.30;99.90;;;;;;6170193;23;20017;-90
2021/10/06 09:39:22;;;;;;;13.73;1.80;;;13.40;99.90;;;;;;6170089;23;20021;-88
2021/10/06 09:41:52;;;;;;;8.30;2.00;;;13.40;99.90;;;;;;6144318;23;20021;-88
2021/10/06 09:44:24;;;;;;;7.32;1.60;;;13.40;99.90;;;;;;6123487;23;20032;-86
2021/10/06 09:46:57;;;;;;;13.57;2.05;;;13.50;99.90;;;;;;6144209;23;20018;-86
2021/10/06 09:49:37;;;;;;;12.13;3.95;;;13.50;99.90;;;;;;6149014;23;20231;-92
2021/10/06 09:52:21;;;;;;;11.77;2.13;;;13.60;99.90;;;;;;6171517;23;20021;-89
2021/10/06 09:54:54;;;;;;;9.05;2.30;;;13.60;99.90;;;;;;6123244;23;20021;-88
2021/10/06 09:57:41;;;;;;;5.65;1.80;;;13.00;99.90;;;;;;6145184;23;20040;-92
2021/10/06 10:00:17;;;;;;;8.23;3.67;;;13.70;99.90;;;;;;6169493;23;20031;-90
2021/10/06 10:02:46;;;;;;;7.57;1.83;;;13.80;99.90;;;;;;6144871;23;20051;-88
2021/10/06 10:05:18;;;;;;;8.95;2.63;;;13.80;99.90;;;;;;6120477;23;20031;-87
2021/10/06 10:07:49;;;;;;;5.80;2.22;;;13.90;99.90;;;;;;6139206;23;20028;-90
2021/10/06 10:10:17;;;;;;;6.65;2.00;;;14.00;99.90;;;;;;6141840;23;20014;-91
2021/10/06 10:12:48;;;;;;;6.60;1.85;;;14.00;99.90;;;;;;6115880;23;20342;-92
2021/10/06 10:15:19;;;;;;;14.77;2.40;;;14.10;99.90;;;;;;6116295;23;20020;-86
2021/10/06 10:18:01;;;;;;;;;;;14.10;99.90;;;;;;6115504;23;20032;-90
2021/10/06 10:20:38;;;;;;;7.32;1.65;;;14.10;99.90;;;;;;6092805;23;19927;-90
2021/10/06 10:23:17;;;;;;;16.83;3.40;;;14.10;99.90;;;;;;6116076;23;20354;-88
2021/10/06 10:25:54;;;;;;;5.35;1.67;;;14.10;99.90;;;;;;6096047;23;20021;-90
2021/10/06 10:28:28;;;;;;;10.00;2.83;;;14.10;99.90;;;;;;6118910;23;20018;-89
2021/10/06 10:31:00;;;;;;;9.13;3.60;;;14.20;99.80;;;;;;6115680;23;20020;-90
2021/10/06 10:33:56;;;;;;;9.10;2.17;;;14.20;99.80;;;;;;6092378;23;20338;-90
2021/10/06 10:36:37;;;;;;;10.60;2.13;;;14.30;99.50;;;;;;6117340;23;20078;-90
2021/10/06 10:39:26;;;;;;;9.20;2.00;;;14.50;99.60;;;;;;6094952;23;20024;-90
2021/10/06 10:41:57;;;;;;;6.20;1.75;;;14.30;99.00;;;;;;6138293;23;20028;-90
2021/10/06 10:44:31;;;;;;;;;;;14.40;99.20;;;;;;6091677;23;20021;-92
2021/10/06 10:47:03;;;;;;;12.80;1.67;;;14.50;99.10;;;;;;6141176;23;19925;-88
2021/10/06 10:49:41;;;;;;;;;;;14.40;99.10;;;;;;6112487;23;20017;-90
2021/10/06 10:52:10;;;;;;;7.03;2.25;;;15.10;99.30;;;;;;6091100;23;20217;-87
2021/10/06 10:54:40;;;;;;;5.82;1.60;;;14.60;98.70;;;;;;6115795;23;20017;-92
2021/10/06 10:57:25;;;;;;;11.90;1.48;;;14.60;98.30;;;;;;6142199;23;20028;-89
2021/10/06 10:59:57;;;;;;;7.10;1.40;;;14.70;98.30;;;;;;6116032;23;20028;-90
2021/10/06 11:02:31;;;;;;;7.28;2.10;;;14.70;98.10;;;;;;6118402;23;20021;-86
2021/10/06 11:05:11;;;;;;;12.50;2.88;;;14.80;98.30;;;;;;6117277;23;20036;-90
2021/10/06 11:07:50;;;;;;;5.43;1.75;;;15.70;98.40;;;;;;6118304;23;20021;-88
2021/10/06 11:14:26;;;;;;;3.78;1.40;;;15.10;97.20;;;;;;6143792;23;20005;31
2021/10/06 11:17:21;;;;;;;;;;;;;;;;;;;;;
2021/10/06 11:21:22;;;;;;;8.65;2.75;;;15.30;97.10;;;;;;6109725;23;20032;-82
2021/10/06 11:23:58;;;;;;;;;;;15.30;96.70;;;;;;6136648;23;20032;-83
2021/10/06 11:26:32;;;;;;;10.95;4.82;;;15.50;96.70;;;;;;6084101;23;19921;-81
2021/10/06 11:29:07;;;;;;;7.18;2.47;;;15.50;96.80;;;;;;6116133;23;20018;-77
2021/10/06 11:32:29;;;;;;;3.85;1.52;;;15.60;96.50;;;;;;6080874;23;20028;-81
2021/10/06 11:34:57;;;;;;;4.55;2.17;;;15.60;96.10;;;;;;6091124;23;20014;-81
2021/10/06 11:37:29;;;;;;;4.38;1.58;;;15.70;95.80;;;;;;6111413;23;20018;-82
2021/10/06 11:40:43;;;;;;;10.05;1.67;;;15.80;95.80;;;;;;6112008;23;20021;-82
2021/10/06 11:44:38;;;;;;;4.03;2.08;;;15.90;95.60;;;;;;6108674;23;20022;-83
2021/10/06 11:47:19;;;;;;;3.92;1.20;;;16.00;95.40;;;;;;6111635;23;20026;-83
2021/10/06 11:49:50;;;;;;;7.88;1.63;;;16.10;95.20;;;;;;6120405;23;20066;-83
2021/10/06 11:52:19;;;;;;;9.25;1.88;;;16.20;95.50;;;;;;6119645;23;20014;-83
2021/10/06 11:54:54;;;;;;;8.88;1.88;;;16.30;95.20;;;;;;6135362;23;20022;-83
2021/10/06 11:58:14;;;;;;;7.53;1.45;;;16.30;95.20;;;;;;6063092;23;20021;-82
2021/10/06 12:01:53;;;;;;;7.70;1.90;;;16.40;95.30;;;;;;6018182;23;20373;-85
2021/10/06 12:04:38;;;;;;;6.70;1.52;;;16.70;94.90;;;;;;6016637;23;20024;-82
2021/10/06 12:07:48;;;;;;;4.78;1.17;;;16.70;94.40;;;;;;6003115;23;20020;-84
2021/10/06 12:11:40;;;;;;;;;;;;;;;;;;;;;
2021/10/06 12:15:05;;;;;;;9.82;2.85;;;16.50;94.70;;;;;;5827339;24;20030;-83
2021/10/06 12:17:50;;;;;;;4.82;1.63;;;16.90;94.20;;;;;;5912466;24;20025;-83
2021/10/06 12:21:24;;;;;;;9.68;2.80;;;16.90;94.30;;;;;;5909879;24;20158;-83
2021/10/06 12:24:32;;;;;;;3.25;1.20;;;16.90;94.00;;;;;;5936439;24;20021;-81
2021/10/06 12:27:25;;;;;;;7.20;1.48;;;18.10;93.60;;;;;;5988398;23;20028;-81
2021/10/06 12:30:47;;;;;;;6.38;1.40;;;17.10;93.40;;;;;;5978786;23;20015;-80
2021/10/06 12:33:37;;;;;;;3.38;1.10;;;16.90;93.30;;;;;;6120873;23;20028;-82
2021/10/06 12:36:25;;;;;;;5.65;1.48;;;16.00;93.20;;;;;;6113095;23;20026;-83
2021/10/06 12:38:59;;;;;;;7.40;1.85;;;17.00;93.80;;;;;;6123141;23;20013;-82
2021/10/06 12:41:38;;;;;;;8.73;2.05;;;17.00;93.70;;;;;;6135199;23;20030;-85
2021/10/06 12:44:47;;;;;;;;;;;;;;;;;;;;;
2021/10/06 12:47:56;;;;;;;;;;;;;;;;;;;;;
2021/10/06 12:51:16;;;;;;;6.82;1.60;;;17.10;93.40;;;;;;6085352;23;20017;-83
2021/10/06 12:54:33;;;;;;;4.53;1.38;;;17.10;93.10;;;;;;6040464;23;20025;-82
2021/10/06 12:57:17;;;;;;;5.90;1.40;;;16.40;92.90;;;;;;6098157;23;20018;-84
2021/10/06 12:59:58;;;;;;;5.13;1.35;;;17.50;93.00;;;;;;6114679;23;20036;-81
2021/10/06 13:03:26;;;;;;;4.20;1.30;;;17.10;93.50;;;;;;6104862;23;20285;-84
2021/10/06 13:06:20;;;;;;;11.85;1.65;;;17.00;93.80;;;;;;6099169;23;20028;-81
2021/10/06 13:09:12;;;;;;;;;;;;;;;;;;;;;
2021/10/06 13:13:03;;;;;;;4.88;1.35;;;17.00;93.40;;;;;;6139963;23;20014;-84
2021/10/06 13:15:59;;;;;;;5.13;1.25;;;17.10;93.60;;;;;;6111739;23;20030;-83
2021/10/06 13:19:24;;;;;;;5.90;1.40;;;17.10;93.50;;;;;;6065374;23;20029;-82
2021/10/06 13:22:10;;;;;;;10.10;1.65;;;17.10;93.20;;;;;;6089201;23;20018;-82
2021/10/06 13:25:06;;;;;;;6.45;2.15;;;17.10;93.30;;;;;;6115155;23;20569;-89
2021/10/06 13:28:16;;;;;;;5.82;1.40;;;17.00;93.10;;;;;;6134112;23;20024;-89
2021/10/06 13:34:03;;;;;;;6.88;1.40;;;17.00;92.90;;;;;;6153028;23;20014;-92
2021/10/06 13:36:33;;;;;;;6.57;1.38;;;16.90;93.00;;;;;;6080424;23;20035;-86
2021/10/06 13:39:04;;;;;;;4.10;1.55;;;16.90;93.00;;;;;;6169018;23;20009;-88
2021/10/06 13:41:32;;;;;;;7.10;1.48;;;16.90;92.80;;;;;;6224848;23;20021;-85
2021/10/06 13:44:03;;;;;;;6.88;1.42;;;16.90;92.90;;;;;;6193250;23;20023;-85
2021/10/06 13:46:44;;;;;;;10.90;1.73;;;16.90;93.10;;;;;;6169173;23;20021;-91
2021/10/06 13:49:17;;;;;;;5.85;1.30;;;16.40;93.00;;;;;;6148324;23;20016;-90
2021/10/06 13:52:14;;;;;;;13.57;1.75;;;16.80;93.20;;;;;;6170644;23;20021;-90
2021/10/06 13:55:18;;;;;;;5.95;2.67;;;16.90;93.50;;;;;;6200105;23;20013;-92
2021/10/06 13:57:53;;;;;;;5.90;1.30;;;16.90;93.00;;;;;;6178764;23;20020;-90
2021/10/06 14:00:26;;;;;;;9.30;1.63;;;16.90;93.00;;;;;;6149134;23;20023;-91
2021/10/06 14:02:58;;;;;;;7.82;1.30;;;16.90;92.90;;;;;;6150766;23;20016;-91
2021/10/06 14:05:30;;;;;;;5.07;1.23;;;16.90;92.90;;;;;;6145928;23;20031;-88
2021/10/06 14:08:10;;;;;;;8.80;2.28;;;17.00;93.10;;;;;;6131408;23;20021;-89
2021/10/06 14:10:49;;;;;;;3.65;1.40;;;17.00;93.30;;;;;;6182390;23;20001;-91
2021/10/06 14:13:21;;;;;;;;;;;17.10;92.70;;;;;;6156478;23;20016;-92
2021/10/06 14:15:49;;;;;;;10.73;2.13;;;17.40;92.90;;;;;;6180459;23;20368;-87
2021/10/06 14:18:23;;;;;;;5.17;1.37;;;17.10;92.60;;;;;;6162790;23;20472;-85
2021/10/06 14:20:54;;;;;;;6.97;1.50;;;17.20;92.80;;;;;;6168105;23;20023;-87
2021/10/06 14:23:24;;;;;;;6.88;1.55;;;17.20;92.90;;;;;;6167759;23;20009;-86
2021/10/06 14:25:58;;;;;;;14.27;2.92;;;17.30;93.00;;;;;;6157155;23;20441;-93